createdAt,value
2023-05-08T00:00:13.951Z,83.52
2023-05-08T00:02:41.078Z,83.49
2023-05-08T00:05:07.762Z,84.23
2023-05-08T00:07:34.324Z,85.83
2023-05-08T00:10:00.759Z,84.73
2023-05-08T00:12:27.199Z,84.59
2023-05-08T00:14:53.610Z,85.04
2023-05-08T00:17:20.057Z,83.16
2023-05-08T00:19:46.498Z,82.74
2023-05-08T00:22:12.993Z,83.23
2023-05-08T00:24:39.516Z,83.28
2023-05-08T00:27:06.249Z,83.51
2023-05-08T00:29:32.849Z,83.66
2023-05-08T00:31:59.389Z,83.67
2023-05-08T00:34:25.886Z,84.76
2023-05-08T00:36:52.303Z,84.76
2023-05-08T00:39:18.768Z,83.76
2023-05-08T00:41:45.192Z,84.36
2023-05-08T00:44:11.698Z,84.58
2023-05-08T00:46:38.172Z,84.78
2023-05-08T00:49:04.870Z,84.26
2023-05-08T00:51:31.331Z,83.80
2023-05-08T00:53:57.782Z,83.92
2023-05-08T00:56:24.170Z,84.24
2023-05-08T00:58:50.597Z,83.72
2023-05-08T01:01:17.010Z,85.20
2023-05-08T01:03:43.755Z,84.43
2023-05-08T01:06:10.563Z,85.01
2023-05-08T01:08:37.278Z,84.63
2023-05-08T01:11:06.849Z,84.87
2023-05-08T01:13:52.184Z,85.32
2023-05-08T01:16:23.586Z,85.03
2023-05-08T01:18:59.578Z,85.98
2023-05-08T01:21:43.061Z,86.47
2023-05-08T01:24:28.333Z,84.60
2023-05-08T01:26:59.529Z,85.15
2023-05-08T01:29:29.063Z,85.29
2023-05-08T01:32:13.609Z,84.84
2023-05-08T01:34:58.622Z,83.75
2023-05-08T01:37:27.785Z,84.62
2023-05-08T01:39:57.516Z,84.34
2023-05-08T01:42:39.350Z,84.46
2023-05-08T01:45:07.966Z,84.83
2023-05-08T01:47:36.153Z,85.56
2023-05-08T01:50:02.738Z,85.15
2023-05-08T01:52:33.355Z,85.44
2023-05-08T01:55:02.011Z,85.98
2023-05-08T01:57:28.653Z,85.68
2023-05-08T01:59:56.082Z,85.11
2023-05-08T02:02:22.709Z,85.23
2023-05-08T02:04:49.472Z,86.95
2023-05-08T02:07:16.201Z,87.67
2023-05-08T02:09:44.452Z,87.93
2023-05-08T02:12:11.532Z,87.13
2023-05-08T02:14:38.128Z,86.55
2023-05-08T02:17:04.672Z,86.42
2023-05-08T02:19:31.178Z,85.98
2023-05-08T02:21:57.897Z,85.79
2023-05-08T02:24:24.332Z,86.56
2023-05-08T02:26:50.951Z,87.12
2023-05-08T02:29:17.454Z,87.48
2023-05-08T02:31:44.181Z,86.56
2023-05-08T02:34:10.740Z,86.86
2023-05-08T02:36:37.389Z,87.31
2023-05-08T02:39:03.789Z,87.52
2023-05-08T02:41:30.760Z,88.58
2023-05-08T02:43:57.229Z,87.47
2023-05-08T02:46:34.683Z,86.31
2023-05-08T02:49:21.366Z,85.99
2023-05-08T02:51:55.120Z,86.67
2023-05-08T02:54:40.269Z,86.87
2023-05-08T02:57:09.254Z,86.89
2023-05-08T02:59:46.090Z,87.38
2023-05-08T03:02:14.278Z,88.46
2023-05-08T03:04:42.090Z,87.80
2023-05-08T03:07:08.657Z,86.88
2023-05-08T03:09:55.701Z,88.08
2023-05-08T03:12:22.385Z,87.76
2023-05-08T03:15:04.648Z,87.42
2023-05-08T03:17:31.392Z,88.11
2023-05-08T03:19:58.172Z,87.74
2023-05-08T03:22:24.615Z,88.12
2023-05-08T03:24:50.973Z,88.01
2023-05-08T03:27:17.779Z,88.07
2023-05-08T03:29:44.247Z,88.31
2023-05-08T03:32:10.982Z,88.57
2023-05-08T03:34:37.588Z,88.40
2023-05-08T03:37:04.030Z,87.84
2023-05-08T03:39:30.500Z,89.15
2023-05-08T03:41:57.250Z,88.66
2023-05-08T03:44:23.962Z,87.89
2023-05-08T03:46:50.781Z,87.95
2023-05-08T03:49:17.404Z,88.05
2023-05-08T03:51:43.808Z,88.93
2023-05-08T03:54:10.195Z,88.09
2023-05-08T03:56:36.662Z,89.30
2023-05-08T03:59:09.278Z,88.12
2023-05-08T04:01:39.045Z,88.64
2023-05-08T04:04:12.356Z,90.22
2023-05-08T04:06:57.827Z,89.66
2023-05-08T04:09:27.276Z,90.13
2023-05-08T04:12:00.745Z,90.72
2023-05-08T04:14:27.744Z,90.07
2023-05-08T04:16:56.214Z,89.76
2023-05-08T04:19:23.730Z,89.04
2023-05-08T04:21:50.303Z,89.21
2023-05-08T04:24:16.828Z,90.25
2023-05-08T04:26:43.329Z,89.95
2023-05-08T04:29:09.822Z,89.97
2023-05-08T04:31:36.266Z,90.10
2023-05-08T04:34:02.873Z,89.56
2023-05-08T04:36:30.716Z,89.54
2023-05-08T04:38:58.658Z,88.90
2023-05-08T04:41:25.713Z,88.51
2023-05-08T04:43:52.283Z,88.38
2023-05-08T04:46:18.791Z,88.41
2023-05-08T04:48:45.470Z,87.48
2023-05-08T04:51:11.988Z,88.24
2023-05-08T04:53:38.412Z,89.09
2023-05-08T04:56:05.170Z,87.84
2023-05-08T04:58:31.741Z,87.72
2023-05-08T05:01:01.689Z,86.92
2023-05-08T05:03:28.121Z,87.34
2023-05-08T05:06:00.729Z,86.12
2023-05-08T05:08:27.466Z,85.93
2023-05-08T05:10:53.915Z,85.03
2023-05-08T05:13:20.495Z,85.73
2023-05-08T05:15:47.273Z,86.16
2023-05-08T05:18:13.806Z,84.72
2023-05-08T05:20:40.294Z,86.77
2023-05-08T05:23:06.861Z,85.80
2023-05-08T05:25:33.285Z,85.31
2023-05-08T05:27:59.703Z,85.02
2023-05-08T05:30:26.661Z,85.30
2023-05-08T05:32:53.217Z,85.25
2023-05-08T05:35:19.922Z,83.86
2023-05-08T05:37:46.776Z,84.96
2023-05-08T05:40:13.248Z,84.13
2023-05-08T05:42:39.694Z,83.52
2023-05-08T05:45:06.417Z,84.18
2023-05-08T05:47:32.984Z,83.19
2023-05-08T05:49:59.492Z,81.98
2023-05-08T05:52:25.958Z,82.84
2023-05-08T05:54:52.344Z,82.55
2023-05-08T05:57:19.519Z,81.59
2023-05-08T05:59:46.066Z,81.45
2023-05-08T06:02:12.569Z,82.68
2023-05-08T06:04:39.021Z,82.93
2023-05-08T06:07:05.554Z,81.96
2023-05-08T06:09:31.939Z,81.20
2023-05-08T06:11:58.323Z,80.67
2023-05-08T06:14:24.970Z,82.64
2023-05-08T06:16:51.361Z,80.59
2023-05-08T06:19:17.771Z,81.58
2023-05-08T06:21:44.355Z,80.70
2023-05-08T06:24:10.825Z,80.87
2023-05-08T06:26:37.218Z,80.16
2023-05-08T06:29:04.048Z,81.25
2023-05-08T06:31:30.604Z,81.59
2023-05-08T06:33:57.289Z,82.05
2023-05-08T06:36:24.114Z,80.65
2023-05-08T06:38:50.594Z,80.85
2023-05-08T06:41:17.057Z,78.59
2023-05-08T06:43:43.578Z,79.14
2023-05-08T06:46:09.976Z,78.21
2023-05-08T06:48:36.483Z,78.10
2023-05-08T06:51:03.005Z,75.77
2023-05-08T06:53:29.511Z,75.13
2023-05-08T06:55:56.033Z,74.25
2023-05-08T06:58:22.528Z,75.79
2023-05-08T07:00:48.924Z,74.34
2023-05-08T07:03:15.559Z,74.85
2023-05-08T07:05:42.207Z,73.30
2023-05-08T07:08:08.567Z,72.92
2023-05-08T07:10:35.021Z,72.74
2023-05-08T07:13:01.666Z,73.67
2023-05-08T07:15:28.392Z,75.33
2023-05-08T07:17:55.112Z,72.29
2023-05-08T07:20:21.798Z,70.47
2023-05-08T07:22:48.504Z,70.22
2023-05-08T07:25:15.078Z,68.27
2023-05-08T07:27:41.868Z,68.34
2023-05-08T07:30:08.370Z,69.21
2023-05-08T07:32:34.772Z,70.38
2023-05-08T07:35:02.291Z,66.37
2023-05-08T07:37:28.661Z,66.91
2023-05-08T07:39:55.169Z,68.06
2023-05-08T07:42:21.693Z,69.56
2023-05-08T07:44:54.257Z,67.29
2023-05-08T07:47:21.623Z,66.55
2023-05-08T07:49:48.087Z,67.00
2023-05-08T07:52:14.523Z,66.21
2023-05-08T07:54:41.137Z,66.08
2023-05-08T07:57:07.649Z,67.53
2023-05-08T07:59:34.071Z,65.45
2023-05-08T08:02:00.563Z,58.74
2023-05-08T08:04:27.121Z,60.25
2023-05-08T08:06:53.709Z,57.67
2023-05-08T08:09:20.243Z,60.29
2023-05-08T08:11:46.627Z,59.34
2023-05-08T08:14:13.301Z,55.99
2023-05-08T08:16:39.757Z,56.99
2023-05-08T08:19:06.195Z,56.56
2023-05-08T08:21:32.609Z,56.86
2023-05-08T08:23:59.136Z,58.55
2023-05-08T08:26:25.559Z,57.62
2023-05-08T08:28:52.005Z,54.94
2023-05-08T08:31:18.569Z,56.67
2023-05-08T08:33:45.426Z,54.94
2023-05-08T08:36:14.404Z,52.64
2023-05-08T08:38:40.946Z,55.78
2023-05-08T08:41:07.423Z,53.44
2023-05-08T08:43:34.111Z,55.26
2023-05-08T08:46:04.203Z,53.13
2023-05-08T08:48:30.726Z,54.27
2023-05-08T08:50:58.928Z,52.08
2023-05-08T08:53:30.091Z,51.54
2023-05-08T08:55:56.600Z,52.56
2023-05-08T08:58:33.942Z,52.10
2023-05-08T09:01:00.949Z,51.44
2023-05-08T09:03:27.511Z,50.66
2023-05-08T09:05:54.124Z,48.76
2023-05-08T09:08:20.737Z,48.65
2023-05-08T09:10:47.226Z,49.69
2023-05-08T09:13:13.900Z,50.06
2023-05-08T09:15:40.387Z,49.65
2023-05-08T09:18:06.886Z,49.37
2023-05-08T09:20:33.421Z,53.12
2023-05-08T09:23:00.769Z,53.75
2023-05-08T09:25:27.255Z,54.08
2023-05-08T09:27:53.733Z,52.14
2023-05-08T09:30:20.145Z,55.18
2023-05-08T09:32:46.642Z,53.54
2023-05-08T09:35:13.730Z,51.60
2023-05-08T09:37:41.205Z,52.11
2023-05-08T09:40:14.330Z,51.83
2023-05-08T09:42:40.816Z,54.72
2023-05-08T09:45:07.475Z,53.04
2023-05-08T09:47:34.138Z,54.24
2023-05-08T09:50:04.668Z,51.79
2023-05-08T09:52:31.577Z,55.06
2023-05-08T09:55:01.785Z,56.02
2023-05-08T09:57:28.436Z,53.01
2023-05-08T10:00:01.724Z,55.29
2023-05-08T10:02:28.442Z,54.28
2023-05-08T10:04:55.144Z,55.80
2023-05-08T10:07:28.642Z,55.67
2023-05-08T10:10:01.761Z,52.37
2023-05-08T10:12:28.452Z,56.30
2023-05-08T10:14:55.258Z,53.47
2023-05-08T10:17:48.312Z,53.77
2023-05-08T10:20:15.192Z,57.28
2023-05-08T10:22:42.276Z,55.55
2023-05-08T10:25:11.263Z,56.07
2023-05-08T10:27:41.681Z,57.11
2023-05-08T10:30:08.359Z,57.02
2023-05-08T10:32:38.322Z,55.06
2023-05-08T10:35:05.027Z,53.25
2023-05-08T10:37:31.589Z,55.15
2023-05-08T10:39:58.158Z,56.35
2023-05-08T10:42:24.634Z,51.95
2023-05-08T10:44:51.028Z,53.86
2023-05-08T10:47:19.623Z,54.73
2023-05-08T10:49:57.074Z,54.83
2023-05-08T10:52:23.605Z,53.94
2023-05-08T10:54:59.010Z,56.72
2023-05-08T10:57:25.537Z,53.90
2023-05-08T10:59:52.042Z,56.33
2023-05-08T11:02:20.890Z,55.64
2023-05-08T11:04:47.477Z,53.60
2023-05-08T11:07:14.088Z,54.08
2023-05-08T11:09:40.567Z,56.51
2023-05-08T11:12:25.940Z,56.50
2023-05-08T11:14:53.846Z,55.25
2023-05-08T11:17:24.010Z,54.12
2023-05-08T11:19:54.796Z,54.71
2023-05-08T11:22:22.437Z,54.47
2023-05-08T11:24:55.911Z,54.49
2023-05-08T11:27:31.621Z,55.34
2023-05-08T11:30:16.981Z,55.97
2023-05-08T11:33:15.846Z,57.16
2023-05-08T11:35:42.381Z,54.26
2023-05-08T11:38:14.194Z,54.98
2023-05-08T11:40:47.625Z,54.84
2023-05-08T11:43:24.468Z,59.14
2023-05-08T11:45:51.160Z,56.09
2023-05-08T11:48:17.602Z,59.33
2023-05-08T11:50:43.978Z,57.18
2023-05-08T11:53:10.533Z,59.56
2023-05-08T11:55:36.923Z,57.82
2023-05-08T11:58:11.305Z,57.11
2023-05-08T12:00:47.013Z,55.97
2023-05-08T12:03:17.326Z,56.26
2023-05-08T12:05:44.163Z,57.41
2023-05-08T12:08:10.801Z,55.89
2023-05-08T12:10:46.959Z,57.03
2023-05-08T12:13:23.374Z,57.48
2023-05-08T12:15:50.641Z,55.56
2023-05-08T12:18:17.230Z,57.06
2023-05-08T12:20:43.852Z,56.28
2023-05-08T12:23:10.474Z,55.08
2023-05-08T12:25:37.556Z,55.96
2023-05-08T12:28:04.006Z,56.73
2023-05-08T12:30:30.484Z,55.45
2023-05-08T12:32:57.075Z,55.14
2023-05-08T12:35:23.607Z,55.95
2023-05-08T12:37:50.712Z,53.90
2023-05-08T12:40:33.279Z,54.91
2023-05-08T12:43:03.127Z,54.26
2023-05-08T12:45:30.265Z,56.06
2023-05-08T12:48:03.365Z,56.33
2023-05-08T12:50:30.026Z,55.02
2023-05-08T12:53:01.555Z,53.79
2023-05-08T12:55:28.843Z,54.11
2023-05-08T12:58:14.717Z,52.09
2023-05-08T13:00:42.965Z,54.58
2023-05-08T13:03:09.665Z,54.87
2023-05-08T13:05:36.749Z,54.21
2023-05-08T13:08:03.949Z,54.10
2023-05-08T13:11:03.017Z,51.61
2023-05-08T13:13:31.192Z,52.81
2023-05-08T13:15:57.815Z,51.79
2023-05-08T13:18:25.054Z,51.89
2023-05-08T13:20:51.552Z,54.22
2023-05-08T13:23:18.028Z,53.86
2023-05-08T13:25:44.508Z,52.90
2023-05-08T13:28:11.054Z,51.84
2023-05-08T13:30:37.622Z,52.57
2023-05-08T13:33:04.353Z,52.63
2023-05-08T13:35:31.213Z,54.00
2023-05-08T13:37:57.871Z,49.73
2023-05-08T13:40:24.350Z,51.25
2023-05-08T13:42:51.017Z,52.64
2023-05-08T13:45:17.561Z,53.53
2023-05-08T13:47:44.211Z,55.69
2023-05-08T13:50:10.962Z,55.89
2023-05-08T13:52:37.682Z,57.07
2023-05-08T13:55:07.320Z,56.68
2023-05-08T13:57:33.841Z,55.93
2023-05-08T14:00:00.244Z,55.90
2023-05-08T14:02:27.134Z,53.58
2023-05-08T14:04:53.861Z,56.05
2023-05-08T14:07:20.360Z,53.84
2023-05-08T14:09:46.811Z,54.30
2023-05-08T14:12:13.262Z,56.09
2023-05-08T14:14:39.770Z,55.47
2023-05-08T14:17:06.340Z,57.42
2023-05-08T14:19:32.894Z,54.98
2023-05-08T14:21:59.281Z,55.51
2023-05-08T14:24:25.727Z,57.04
2023-05-08T14:26:52.175Z,55.35
2023-05-08T14:29:19.013Z,55.96
2023-05-08T14:31:45.532Z,55.95
2023-05-08T14:34:12.067Z,56.93
2023-05-08T14:36:38.491Z,57.84
2023-05-08T14:39:04.918Z,57.40
2023-05-08T14:41:31.398Z,55.28
2023-05-08T14:43:57.807Z,55.47
2023-05-08T14:46:24.357Z,57.03
2023-05-08T14:48:51.256Z,58.11
2023-05-08T14:51:17.718Z,59.23
2023-05-08T14:53:44.333Z,59.12
2023-05-08T14:56:11.402Z,57.53
2023-05-08T14:58:37.954Z,57.77
2023-05-08T15:01:04.435Z,58.02
2023-05-08T15:03:31.008Z,58.62
2023-05-08T15:05:57.640Z,59.49
2023-05-08T15:08:24.130Z,58.09
2023-05-08T15:10:50.567Z,59.65
2023-05-08T15:13:17.024Z,58.92
2023-05-08T15:15:43.779Z,58.91
2023-05-08T15:18:10.345Z,60.42
2023-05-08T15:20:36.827Z,58.65
2023-05-08T15:23:03.252Z,59.92
2023-05-08T15:25:29.833Z,60.89
2023-05-08T15:27:56.777Z,60.74
2023-05-08T15:30:24.417Z,61.82
2023-05-08T15:32:51.228Z,60.85
2023-05-08T15:35:17.768Z,61.22
2023-05-08T15:37:44.156Z,61.54
2023-05-08T15:40:11.079Z,61.60
2023-05-08T15:42:37.611Z,62.71
2023-05-08T15:45:04.073Z,62.34
2023-05-08T15:47:30.564Z,62.88
2023-05-08T15:49:57.023Z,62.33
2023-05-08T15:52:23.508Z,62.32
2023-05-08T15:54:50.055Z,62.86
2023-05-08T15:57:16.578Z,62.37
2023-05-08T15:59:43.081Z,63.95
2023-05-08T16:02:09.598Z,64.76
2023-05-08T16:04:36.131Z,65.12
2023-05-08T16:07:02.504Z,64.99
2023-05-08T16:09:28.925Z,65.07
2023-05-08T16:11:55.351Z,66.37
2023-05-08T16:14:21.851Z,67.87
2023-05-08T16:16:48.411Z,67.03
2023-05-08T16:19:14.877Z,67.91
2023-05-08T16:21:41.316Z,66.50
2023-05-08T16:24:08.015Z,65.41
2023-05-08T16:26:34.495Z,66.58
2023-05-08T16:29:00.950Z,67.05
2023-05-08T16:31:27.531Z,67.40
2023-05-08T16:33:53.908Z,66.66
2023-05-08T16:36:20.354Z,67.02
2023-05-08T16:38:46.886Z,67.19
2023-05-08T16:41:13.317Z,65.54
2023-05-08T16:43:39.717Z,65.73
2023-05-08T16:46:06.302Z,67.46
2023-05-08T16:48:32.739Z,67.15
2023-05-08T16:50:59.130Z,67.49
2023-05-08T16:53:25.548Z,66.97
2023-05-08T16:55:51.978Z,68.45
2023-05-08T16:58:18.414Z,68.09
2023-05-08T17:00:44.928Z,67.35
2023-05-08T17:03:11.572Z,67.09
2023-05-08T17:05:38.161Z,68.42
2023-05-08T17:08:04.789Z,68.15
2023-05-08T17:10:31.273Z,68.64
2023-05-08T17:12:58.150Z,67.88
2023-05-08T17:15:24.683Z,68.56
2023-05-08T17:17:51.110Z,68.56
2023-05-08T17:20:17.587Z,68.70
2023-05-08T17:22:44.022Z,68.33
2023-05-08T17:25:10.494Z,68.64
2023-05-08T17:27:36.896Z,68.89
2023-05-08T17:30:03.591Z,69.91
2023-05-08T17:32:30.002Z,69.58
2023-05-08T17:34:56.493Z,68.86
2023-05-08T17:37:23.014Z,70.28
2023-05-08T17:39:49.470Z,69.13
2023-05-08T17:42:15.954Z,70.29
2023-05-08T17:44:42.474Z,70.72
2023-05-08T17:47:08.903Z,69.33
2023-05-08T17:49:35.309Z,71.12
2023-05-08T17:52:01.760Z,70.78
2023-05-08T17:54:28.194Z,71.08
2023-05-08T17:56:54.867Z,69.76
2023-05-08T17:59:21.374Z,70.83
2023-05-08T18:01:47.839Z,70.54
2023-05-08T18:04:14.452Z,71.13
2023-05-08T18:06:40.918Z,70.37
2023-05-08T18:09:07.377Z,70.51
2023-05-08T18:11:33.818Z,68.31
2023-05-08T18:14:00.293Z,69.65
2023-05-08T18:16:26.744Z,71.81
2023-05-08T18:18:53.300Z,71.94
2023-05-08T18:21:19.714Z,71.72
2023-05-08T18:23:46.143Z,69.94
2023-05-08T18:26:13.050Z,73.06
2023-05-08T18:28:39.652Z,75.54
2023-05-08T18:31:06.076Z,73.14
2023-05-08T18:33:32.544Z,71.41
2023-05-08T18:35:59.057Z,69.64
2023-05-08T18:38:25.415Z,70.49
2023-05-08T18:40:51.835Z,69.81
2023-05-08T18:43:18.270Z,70.86
2023-05-08T18:45:44.785Z,69.23
2023-05-08T18:48:11.305Z,70.18
2023-05-08T18:50:37.861Z,70.97
2023-05-08T18:53:04.347Z,74.04
2023-05-08T18:55:30.727Z,77.01
2023-05-08T18:57:57.235Z,77.39
2023-05-08T19:00:23.671Z,75.39
2023-05-08T19:02:50.213Z,73.00
2023-05-08T19:05:16.881Z,71.82
2023-05-08T19:07:43.730Z,72.05
2023-05-08T19:10:10.401Z,71.79
2023-05-08T19:12:36.946Z,74.00
2023-05-08T19:15:03.381Z,76.19
2023-05-08T19:17:29.871Z,76.33
2023-05-08T19:19:56.413Z,75.57
2023-05-08T19:22:22.874Z,74.57
2023-05-08T19:24:49.357Z,76.12
2023-05-08T19:27:15.805Z,77.05
2023-05-08T19:29:42.196Z,76.07
2023-05-08T19:32:08.602Z,77.75
2023-05-08T19:34:35.294Z,79.08
2023-05-08T19:37:01.803Z,77.82
2023-05-08T19:39:28.313Z,77.84
2023-05-08T19:41:54.765Z,77.54
2023-05-08T19:44:21.200Z,77.72
2023-05-08T19:46:47.636Z,77.13
2023-05-08T19:49:14.142Z,77.80
2023-05-08T19:51:40.656Z,80.18
2023-05-08T19:54:07.150Z,81.39
2023-05-08T19:56:33.621Z,80.86
2023-05-08T19:58:59.981Z,79.62
2023-05-08T20:01:26.400Z,80.00
2023-05-08T20:03:53.180Z,80.75
2023-05-08T20:06:19.752Z,82.52
2023-05-08T20:08:46.188Z,83.81
2023-05-08T20:11:12.682Z,83.73
2023-05-08T20:13:39.218Z,83.25
2023-05-08T20:16:05.814Z,82.98
2023-05-08T20:18:33.468Z,83.62
2023-05-08T20:20:59.941Z,82.51
2023-05-08T20:23:26.407Z,81.48
2023-05-08T20:25:52.876Z,83.63
2023-05-08T20:28:19.276Z,83.49
2023-05-08T20:30:46.295Z,83.37
2023-05-08T20:33:12.895Z,82.76
2023-05-08T20:35:39.416Z,83.33
2023-05-08T20:38:05.824Z,84.64
2023-05-08T20:40:32.348Z,83.19
2023-05-08T20:42:58.840Z,83.23
2023-05-08T20:45:25.355Z,83.08
2023-05-08T20:47:51.881Z,84.40
2023-05-08T20:50:18.444Z,82.96
2023-05-08T20:52:44.928Z,83.59
2023-05-08T20:55:11.510Z,83.86
2023-05-08T20:57:38.108Z,84.54
2023-05-08T21:00:05.025Z,82.75
2023-05-08T21:02:31.651Z,83.17
2023-05-08T21:04:58.169Z,82.48
2023-05-08T21:07:24.718Z,82.64
2023-05-08T21:09:51.555Z,83.34
2023-05-08T21:12:18.014Z,84.02
2023-05-08T21:14:44.440Z,83.72
2023-05-08T21:17:10.916Z,84.23
2023-05-08T21:19:37.304Z,84.56
2023-05-08T21:22:03.749Z,85.38
2023-05-08T21:24:30.293Z,84.78
2023-05-08T21:26:56.821Z,85.72
2023-05-08T21:29:23.276Z,86.37
2023-05-08T21:31:49.791Z,86.30
2023-05-08T21:34:16.259Z,86.32
2023-05-08T21:36:42.819Z,86.50
2023-05-08T21:39:09.346Z,85.85
2023-05-08T21:41:35.829Z,86.77
2023-05-08T21:44:02.292Z,86.87
2023-05-08T21:46:28.920Z,85.88
2023-05-08T21:48:55.452Z,86.62
2023-05-08T21:51:21.923Z,85.67
2023-05-08T21:53:48.363Z,86.51
2023-05-08T21:56:14.738Z,86.32
2023-05-08T21:58:41.118Z,86.51
2023-05-08T22:01:07.592Z,86.31
2023-05-08T22:03:34.130Z,87.30
2023-05-08T22:06:00.626Z,86.65
2023-05-08T22:08:27.135Z,86.67
2023-05-08T22:10:53.523Z,87.01
2023-05-08T22:13:20.026Z,87.42
2023-05-08T22:15:46.685Z,88.25
2023-05-08T22:18:13.092Z,88.16
2023-05-08T22:20:39.575Z,88.05
2023-05-08T22:23:06.287Z,88.36
2023-05-08T22:25:32.806Z,87.23
2023-05-08T22:27:59.191Z,88.64
2023-05-08T22:30:25.718Z,88.48
2023-05-08T22:32:53.151Z,88.38
2023-05-08T22:35:19.847Z,88.17
2023-05-08T22:37:46.309Z,88.62
2023-05-08T22:40:12.998Z,88.04
2023-05-08T22:42:39.524Z,87.53
2023-05-08T22:45:06.221Z,88.56
2023-05-08T22:47:33.251Z,87.78
2023-05-08T22:49:59.699Z,88.13
2023-05-08T22:52:26.238Z,87.85
2023-05-08T22:54:52.734Z,89.97
2023-05-08T22:57:19.260Z,90.79
2023-05-08T22:59:45.776Z,88.72
2023-05-08T23:02:12.227Z,89.52
2023-05-08T23:04:38.712Z,88.61
2023-05-08T23:07:05.248Z,89.75
2023-05-08T23:09:31.768Z,90.01
2023-05-08T23:11:58.217Z,90.58
2023-05-08T23:14:24.668Z,92.09
2023-05-08T23:16:51.204Z,91.40
2023-05-08T23:19:17.734Z,89.21
2023-05-08T23:21:44.265Z,89.35
2023-05-08T23:24:10.769Z,88.90
2023-05-08T23:26:37.259Z,89.33
2023-05-08T23:29:03.739Z,89.85
2023-05-08T23:31:30.201Z,89.45
2023-05-08T23:33:56.626Z,90.35
2023-05-08T23:36:23.181Z,88.93
2023-05-08T23:38:49.600Z,89.14
2023-05-08T23:41:16.274Z,88.17
2023-05-08T23:43:42.688Z,88.85
2023-05-08T23:46:09.119Z,89.92
2023-05-08T23:48:35.570Z,89.66
2023-05-08T23:51:02.087Z,89.00
2023-05-08T23:53:28.861Z,89.02
2023-05-08T23:55:55.338Z,88.29
2023-05-08T23:58:21.851Z,88.17
